Time;durP1;ratioP1;P1;durP2;ratioP2;P2;SDS_P1;SDS_P2;PMS_P1;PMS_P2;Temp;Humidity;BMP_temperature;BMP_pressure;BME280_temperature;BME280_humidity;BME280_pressure;Samples;Min_cycle;Max_cycle;Signal;HPM_P1;HPM_P2
2022/09/15 00:01:10;;;;;;;10.70;7.17;;;;;;;18.38;80.99;98945.91;5054761;28;20161;-81
2022/09/15 00:03:36;;;;;;;11.80;6.43;;;;;;;18.34;81.45;98939.06;5055010;28;20189;-81
2022/09/15 00:06:02;;;;;;;9.57;6.47;;;;;;;18.31;82.26;98944.19;5054860;28;20223;-81
2022/09/15 00:08:28;;;;;;;8.67;6.23;;;;;;;18.09;82.02;98903.06;5054187;28;20622;-81
2022/09/15 00:11:09;;;;;;;8.27;6.47;;;;;;;17.78;82.44;98839.69;5053718;28;20306;-81
2022/09/15 00:13:35;;;;;;;10.90;6.47;;;;;;;18.22;82.25;98916.78;5054719;28;20184;-81
2022/09/15 00:16:02;;;;;;;10.00;6.10;;;;;;;18.21;82.07;98933.88;5053547;28;20222;-81
2022/09/15 00:18:28;;;;;;;9.70;5.97;;;;;;;18.09;82.63;98903.06;5070015;28;20259;-81
2022/09/15 00:20:53;;;;;;;7.03;5.63;;;;;;;17.89;81.44;98862.81;5054118;28;20327;-82
2022/09/15 00:23:19;;;;;;;7.33;5.83;;;;;;;18.36;80.35;98921.97;5053874;28;20193;-81
2022/09/15 00:25:49;;;;;;;6.97;5.90;;;;;;;18.48;81.00;98922.09;5053671;28;20166;-82
2022/09/15 00:28:17;;;;;;;7.23;5.67;;;;;;;18.42;79.61;98922.03;5053777;28;20172;-81
2022/09/15 00:30:44;;;;;;;10.37;6.00;;;;;;;18.40;81.01;98919.47;5053738;28;20625;-82
2022/09/15 00:33:10;;;;;;;6.90;6.00;;;;;;;18.38;80.67;98917.72;5053827;28;20165;-82
2022/09/15 00:35:40;;;;;;;9.30;6.13;;;;;;;18.21;81.77;98908.25;5053518;28;20228;-82
2022/09/15 00:38:07;;;;;;;8.67;5.73;;;;;;;18.06;81.23;98903.06;5053655;28;20188;-82
2022/09/15 00:40:33;;;;;;;7.93;5.60;;;;;;;18.20;80.89;98919.38;5053456;28;20246;-82
2022/09/15 00:42:59;;;;;;;8.07;5.77;;;;;;;18.09;80.64;98900.50;5053602;28;20276;-82
2022/09/15 00:45:25;;;;;;;7.73;5.30;;;;;;;17.52;80.54;98795.16;5053478;28;20193;-82
2022/09/15 00:47:51;;;;;;;7.73;5.70;;;;;;;18.23;80.14;98911.69;5052828;28;20198;-82
2022/09/15 00:50:19;;;;;;;8.70;6.40;;;;;;;18.02;83.22;98916.66;5053973;28;20219;-82
2022/09/15 00:53:04;;;;;;;10.30;5.87;;;;;;;17.90;85.68;98911.50;5057658;28;20200;-83
2022/09/15 00:55:37;;;;;;;7.87;6.27;;;;;;;17.78;87.15;98893.47;5055878;28;20251;-84
2022/09/15 00:58:13;;;;;;;10.13;6.00;;;;;;;17.88;88.70;98913.16;5057706;28;20606;-83
2022/09/15 01:00:46;;;;;;;9.47;6.27;;;;;;;17.64;90.42;98864.34;5055616;28;20152;-84
2022/09/15 01:03:13;;;;;;;9.90;6.40;;;;;;;17.63;91.50;98860.94;5054300;28;20196;-84
2022/09/15 01:05:46;;;;;;;9.00;6.37;;;;;;;17.07;91.85;98770.09;5054088;28;20161;-85
2022/09/15 01:08:27;;;;;;;8.90;6.80;;;;;;;17.84;93.00;98896.06;5053752;28;20188;-84
2022/09/15 01:10:52;;;;;;;9.53;6.90;;;;;;;17.80;92.50;98878.13;5053322;28;20172;-84
2022/09/15 01:13:18;;;;;;;8.70;6.77;;;;;;;17.90;92.25;98896.13;5053410;28;20161;-83
2022/09/15 01:16:04;;;;;;;10.67;6.80;;;;;;;17.99;91.90;98885.91;5054057;28;20221;-84
2022/09/15 01:18:35;;;;;;;9.07;6.70;;;;;;;17.80;94.58;98889.22;5053177;28;20183;-84
2022/09/15 01:21:17;;;;;;;8.70;6.97;;;;;;;17.48;97.85;98840.31;5057265;28;20572;-84
2022/09/15 01:23:57;;;;;;;11.33;7.63;;;;;;;17.86;96.61;98893.50;5073585;28;20196;-84
2022/09/15 01:26:45;;;;;;;8.47;6.83;;;;;;;17.87;95.47;98885.00;5073000;28;20156;-84
2022/09/15 01:29:31;;;;;;;10.33;7.00;;;;;;;17.84;95.16;98888.41;5072891;28;20186;-84
2022/09/15 01:35:21;;;;;;;10.17;6.93;;;;;;;17.71;91.90;98852.47;5074008;28;20296;-84
2022/09/15 01:37:57;;;;;;;11.67;6.73;;;;;;;17.71;92.09;98853.31;5074220;28;20278;-84
2022/09/15 01:40:28;;;;;;;8.80;7.13;;;;;;;17.97;92.28;98882.50;5073061;28;20156;-84
2022/09/15 01:42:55;;;;;;;8.87;7.30;;;;;;;17.90;90.01;98864.53;5072424;28;20284;-84
2022/09/15 01:45:26;;;;;;;11.13;6.97;;;;;;;17.79;91.10;98851.66;5072427;28;20169;-84
2022/09/15 01:47:55;;;;;;;9.57;7.00;;;;;;;17.83;89.83;98853.38;5072867;28;20593;-84
2022/09/15 01:50:35;;;;;;;9.07;6.73;;;;;;;17.81;89.27;98839.72;5072749;28;20161;-84
2022/09/15 01:53:07;;;;;;;10.57;7.27;;;;;;;17.62;88.79;98831.06;5070942;28;20648;-83
2022/09/15 01:56:04;;;;;;;10.27;7.00;;;;;;;17.83;93.00;98899.47;5072632;28;20262;-84
2022/09/15 01:58:31;;;;;;;10.40;6.63;;;;;;;17.78;92.30;98870.41;5030372;28;20248;-83
2022/09/15 02:01:03;;;;;;;8.93;6.80;;;;;;;17.85;91.00;98882.44;5015211;28;20617;-83
2022/09/15 02:03:38;;;;;;;11.83;7.17;;;;;;;17.90;90.95;98898.69;5010509;28;20214;-83
2022/09/15 02:06:13;;;;;;;9.37;7.13;;;;;;;17.62;91.30;98859.22;5011394;28;20604;-83
2022/09/15 02:09:01;;;;;;;8.73;6.90;;;;;;;17.46;93.90;98846.28;5010458;28;20208;-83
2022/09/15 02:11:27;;;;;;;9.47;7.20;;;;;;;17.67;92.74;98872.06;4993996;28;20186;-83
2022/09/15 02:14:05;;;;;;;10.53;7.77;;;;;;;17.77;93.72;98888.34;5010300;28;20169;-82
2022/09/15 02:16:34;;;;;;;10.73;8.07;;;;;;;17.69;94.28;98890.84;5010300;28;20617;-82
2022/09/15 02:18:59;;;;;;;16.70;7.67;;;;;;;17.64;95.43;98887.38;5010578;28;20174;-82
2022/09/15 02:21:42;;;;;;;12.27;7.70;;;;;;;17.29;96.24;98860.63;5011115;28;20570;-84
2022/09/15 02:24:17;;;;;;;12.73;8.03;;;;;;;17.52;96.13;98905.19;5010391;28;20215;-84
2022/09/15 02:26:45;;;;;;;11.40;7.90;;;;;;;16.77;95.77;98793.69;5010434;28;20272;-83
2022/09/15 02:29:15;;;;;;;13.07;8.40;;;;;;;17.46;95.12;98895.78;5011084;28;20264;-82
2022/09/15 02:31:43;;;;;;;11.97;7.80;;;;;;;17.41;96.37;98900.00;5010361;28;20209;-82
2022/09/15 02:34:22;;;;;;;9.40;7.57;;;;;;;17.36;100.00;98900.81;4996678;28;20308;-82
2022/09/15 02:36:51;;;;;;;13.23;8.20;;;;;;;17.09;100.00;98863.88;5052285;28;20169;-83
2022/09/15 02:39:20;;;;;;;9.87;7.27;;;;;;;16.82;100.00;98806.50;5052362;28;20166;-83
2022/09/15 02:41:47;;;;;;;11.07;7.90;;;;;;;16.93;99.51;98817.69;5051805;28;20653;-84
2022/09/15 02:44:13;;;;;;;12.13;8.03;;;;;;;17.21;100.00;98859.72;5052091;28;20524;-83
2022/09/15 02:46:39;;;;;;;11.43;8.00;;;;;;;17.35;100.00;98893.97;5052580;28;20161;-84
2022/09/15 02:49:04;;;;;;;12.37;8.13;;;;;;;17.34;100.00;98894.78;5052216;28;20162;-83
2022/09/15 02:51:30;;;;;;;11.63;8.00;;;;;;;16.98;100.00;98839.03;5052115;28;20168;-83
2022/09/15 02:53:55;;;;;;;11.40;8.03;;;;;;;16.79;98.93;98771.56;5067792;28;20238;-81
2022/09/15 02:56:21;;;;;;;16.23;8.13;;;;;;;17.49;98.39;98887.25;5071747;28;20183;-82
2022/09/15 02:58:47;;;;;;;11.17;8.13;;;;;;;16.63;100.00;98841.25;5071423;28;20582;-83
2022/09/15 03:01:14;;;;;;;12.23;8.03;;;;;;;16.86;100.00;98827.03;5071396;28;20299;-80
2022/09/15 03:03:40;;;;;;;12.37;7.80;;;;;;;16.28;100.00;98746.34;5071592;28;20188;-84
2022/09/15 03:06:15;;;;;;;10.07;7.90;;;;;;;17.27;99.40;98885.34;5071242;28;20161;-83
2022/09/15 03:08:51;;;;;;;13.03;8.20;;;;;;;17.35;99.53;98886.28;5071422;28;20628;-83
2022/09/15 03:11:19;;;;;;;10.83;8.30;;;;;;;17.37;98.16;98872.66;5074322;28;20192;-84
2022/09/15 03:13:46;;;;;;;12.17;8.60;;;;;;;17.20;97.65;98848.63;5075790;28;20593;-83
2022/09/15 03:16:14;;;;;;;11.17;8.10;;;;;;;17.30;97.48;98867.47;5075422;28;20165;-82
2022/09/15 03:18:40;;;;;;;11.73;8.27;;;;;;;17.52;95.86;98887.28;5075436;28;20200;-83
2022/09/15 03:21:09;;;;;;;11.43;7.93;;;;;;;17.44;95.60;98873.56;5075305;28;20160;-82
2022/09/15 03:23:35;;;;;;;11.37;8.10;;;;;;;17.14;95.32;98830.66;5073785;28;20707;-83
2022/09/15 03:26:01;;;;;;;16.20;7.90;;;;;;;17.40;95.32;98876.94;5075473;28;20165;-84
2022/09/15 03:28:28;;;;;;;12.57;8.17;;;;;;;16.87;96.56;98800.59;5075731;28;20184;-85
2022/09/15 03:30:53;;;;;;;11.27;8.17;;;;;;;17.42;96.68;98888.91;5075585;28;20161;-83
2022/09/15 03:33:20;;;;;;;15.60;8.70;;;;;;;17.48;96.34;98891.50;5075156;28;20164;-81
2022/09/15 03:35:46;;;;;;;13.20;8.30;;;;;;;17.50;96.15;98892.38;5074910;28;20583;-81
2022/09/15 03:38:13;;;;;;;20.57;9.30;;;;;;;17.52;93.83;98875.34;5075093;28;20616;-82
2022/09/15 03:40:38;;;;;;;21.60;8.90;;;;;;;17.56;94.51;98874.53;5074971;28;20153;-81
2022/09/15 03:43:03;;;;;;;18.23;9.67;;;;;;;17.37;94.69;98843.63;5075307;28;20579;-82
2022/09/15 03:45:29;;;;;;;18.53;9.57;;;;;;;17.16;92.74;98805.09;5075379;28;20597;-83
2022/09/15 03:47:54;;;;;;;21.77;9.77;;;;;;;15.73;93.54;98578.09;5075655;28;20173;-81
2022/09/15 03:50:20;;;;;;;18.33;9.07;;;;;;;17.56;93.57;98868.56;5075396;28;20165;-82
2022/09/15 03:52:46;;;;;;;20.73;9.10;;;;;;;17.14;95.90;98802.53;5069803;28;20221;-83
2022/09/15 03:55:11;;;;;;;15.37;9.10;;;;;;;17.30;96.83;98834.22;5072982;28;20169;-83
2022/09/15 03:57:37;;;;;;;19.40;9.37;;;;;;;17.60;96.12;98890.78;5074602;28;20161;-83
2022/09/15 04:00:06;;;;;;;18.60;9.40;;;;;;;17.25;98.18;98846.13;5074850;28;20164;-83
2022/09/15 04:02:32;;;;;;;24.67;11.30;;;;;;;17.25;98.77;98853.78;5091557;28;20582;-83
2022/09/15 04:04:57;;;;;;;27.93;11.13;;;;;;;17.45;99.18;98890.63;5090921;28;20183;-83
2022/09/15 04:07:23;;;;;;;32.33;11.17;;;;;;;17.00;99.34;98822.03;5074049;28;20161;-83
2022/09/15 04:09:49;;;;;;;29.87;10.43;;;;;;;17.41;97.81;98891.47;5074678;28;20705;-83
2022/09/15 04:12:14;;;;;;;25.23;10.63;;;;;;;17.21;95.48;98881.03;5054455;28;20241;-83
2022/09/15 04:14:40;;;;;;;18.63;10.23;;;;;;;16.68;96.90;98857.50;5058579;28;20307;-85
2022/09/15 04:17:05;;;;;;;18.73;9.90;;;;;;;16.64;96.96;98849.78;5057659;28;20185;-85
2022/09/15 04:19:31;;;;;;;15.90;9.80;;;;;;;16.72;97.61;98861.81;5072326;28;20189;-86
2022/09/15 04:21:56;;;;;;;21.00;10.20;;;;;;;15.23;96.53;98605.56;5071732;28;20184;-86
2022/09/15 04:24:21;;;;;;;21.40;10.90;;;;;;;15.70;96.73;98691.22;5067804;28;20238;-85
2022/09/15 04:26:47;;;;;;;19.27;11.73;;;;;;;16.75;96.01;98877.19;5073366;28;20200;-84
2022/09/15 04:29:15;;;;;;;23.97;11.23;;;;;;;14.69;95.81;98540.31;5073328;28;20191;-85
2022/09/15 04:31:41;;;;;;;22.03;11.27;;;;;;;16.91;96.25;98901.22;5061453;28;20177;-85
2022/09/15 04:34:06;;;;;;;29.50;11.13;;;;;;;16.42;95.12;98812.91;5062793;28;20224;-85
2022/09/15 04:36:32;;;;;;;23.23;11.27;;;;;;;16.49;94.43;98814.66;5069099;28;20193;-85
2022/09/15 04:38:57;;;;;;;24.17;11.80;;;;;;;15.91;93.45;98700.78;5052876;28;20212;-85
2022/09/15 04:41:24;;;;;;;29.33;11.43;;;;;;;16.77;92.93;98867.84;5053024;28;20227;-86
2022/09/15 04:43:50;;;;;;;27.60;11.67;;;;;;;16.77;92.39;98841.41;5061259;28;20208;-85
2022/09/15 04:46:17;;;;;;;26.10;11.33;;;;;;;16.52;93.22;98807.03;5073264;28;20209;-85
2022/09/15 04:48:44;;;;;;;21.83;10.70;;;;;;;16.30;91.09;98751.44;5073102;28;20188;-86
2022/09/15 04:51:13;;;;;;;19.63;12.00;;;;;;;15.92;90.70;98661.69;5073090;28;20180;-85
2022/09/15 04:53:40;;;;;;;19.53;10.13;;;;;;;16.53;88.67;98734.69;5069772;28;20177;-85
2022/09/15 04:56:08;;;;;;;20.90;11.20;;;;;;;16.82;89.21;98794.59;5072868;28;20180;-85
2022/09/15 04:58:38;;;;;;;21.73;11.30;;;;;;;16.64;89.96;98771.44;5072353;28;20185;-85
2022/09/15 05:01:09;;;;;;;23.17;10.33;;;;;;;17.76;88.40;98948.06;5070325;28;20184;-85
2022/09/15 05:03:36;;;;;;;19.23;9.77;;;;;;;17.59;88.13;98895.03;5076102;28;20215;-84
2022/09/15 05:06:03;;;;;;;14.20;9.27;;;;;;;17.28;86.55;98806.03;5079427;28;20230;-84
2022/09/15 05:08:28;;;;;;;16.10;8.80;;;;;;;17.86;85.15;98884.13;5059280;28;20573;-84
2022/09/15 05:11:03;;;;;;;13.93;8.07;;;;;;;17.56;84.38;98830.16;5057527;28;20177;-85
2022/09/15 05:13:29;;;;;;;11.47;8.40;;;;;;;17.49;84.57;98805.34;5047813;28;20249;-85
2022/09/15 05:15:54;;;;;;;11.80;8.67;;;;;;;17.54;85.05;98819.06;5072697;28;20657;-84
2022/09/15 05:18:20;;;;;;;14.57;8.93;;;;;;;16.31;88.51;98679.09;5072616;28;20976;-86
2022/09/15 05:20:45;;;;;;;22.73;8.80;;;;;;;16.77;86.67;98694.00;5071131;28;20679;-85
2022/09/15 05:23:11;;;;;;;16.43;8.27;;;;;;;18.27;84.33;98904.84;5071352;28;20215;-82
2022/09/15 05:25:37;;;;;;;16.70;8.83;;;;;;;18.69;83.40;98942.69;5053321;28;20185;-85
2022/09/15 05:28:04;;;;;;;11.47;7.27;;;;;;;17.76;81.82;98773.97;5051061;28;20200;-83
2022/09/15 05:30:29;;;;;;;14.90;8.93;;;;;;;17.42;80.48;98678.19;5045198;28;20224;-82
2022/09/15 05:32:55;;;;;;;16.87;8.90;;;;;;;19.01;79.80;98927.41;5067052;28;20237;-84
2022/09/15 05:35:22;;;;;;;12.63;7.70;;;;;;;17.90;78.94;98733.91;5072760;28;20232;-86
2022/09/15 05:37:48;;;;;;;14.80;8.10;;;;;;;18.57;77.31;98804.22;5087799;28;20184;-85
2022/09/15 05:40:14;;;;;;;13.47;7.70;;;;;;;18.83;76.00;98812.78;5073070;28;20169;-86
2022/09/15 05:42:39;;;;;;;17.93;8.70;;;;;;;18.96;77.09;98822.19;5069409;28;20249;-86
2022/09/15 05:45:05;;;;;;;12.67;8.77;;;;;;;19.03;75.17;98810.25;5070555;28;20189;-85
2022/09/15 05:47:31;;;;;;;15.07;7.97;;;;;;;19.65;74.62;98928.34;5071617;28;20173;-87
2022/09/15 05:49:59;;;;;;;12.70;7.37;;;;;;;19.04;72.94;98810.22;5071913;28;21021;-86
2022/09/15 05:52:24;;;;;;;14.27;7.13;;;;;;;18.25;72.34;98665.69;5071092;28;20292;-85
2022/09/15 05:54:50;;;;;;;12.27;7.43;;;;;;;18.99;72.20;98729.00;5070149;28;20766;-83
2022/09/15 05:57:15;;;;;;;10.23;7.27;;;;;;;20.06;71.88;98908.63;5087185;28;20267;-84
2022/09/15 05:59:42;;;;;;;11.43;8.37;;;;;;;19.10;72.02;98756.34;5071735;28;20188;-85
2022/09/15 06:02:08;;;;;;;11.17;8.13;;;;;;;19.96;70.58;98874.41;5087050;28;20207;-85
2022/09/15 06:04:34;;;;;;;13.93;7.67;;;;;;;20.22;70.74;98919.72;5071204;28;20181;-84
2022/09/15 06:06:59;;;;;;;13.37;7.70;;;;;;;19.10;69.27;98714.44;5070708;28;20192;-85
2022/09/15 06:09:25;;;;;;;10.97;6.70;;;;;;;19.09;69.95;98775.16;5068925;28;20260;-85
2022/09/15 06:11:51;;;;;;;12.73;7.10;;;;;;;18.90;70.07;98714.47;5049461;28;20191;-85
2022/09/15 06:14:16;;;;;;;10.33;7.57;;;;;;;19.06;68.92;98713.63;5084368;28;20271;-84
2022/09/15 06:16:41;;;;;;;14.73;7.93;;;;;;;18.40;67.96;98541.84;5072425;28;20204;-84
2022/09/15 06:19:07;;;;;;;12.10;6.80;;;;;;;19.10;67.31;98628.06;5071368;28;20177;-84
2022/09/15 06:21:33;;;;;;;10.63;6.73;;;;;;;19.80;66.13;98715.16;5071417;28;20195;-84
2022/09/15 06:24:02;;;;;;;14.67;7.53;;;;;;;20.66;66.51;98829.59;5069440;28;20291;-84
2022/09/15 06:26:28;;;;;;;12.77;7.03;;;;;;;20.53;65.95;98769.63;5070298;28;20863;-85
2022/09/15 06:29:01;;;;;;;12.43;6.77;;;;;;;19.15;64.98;98566.47;5072054;28;20560;-85
2022/09/15 06:31:30;;;;;;;14.23;6.20;;;;;;;20.71;64.66;98773.81;5063656;28;20307;-84
2022/09/15 06:33:56;;;;;;;9.80;5.83;;;;;;;20.15;62.04;98679.84;5058099;28;20319;-85
2022/09/15 06:36:27;;;;;;;13.97;6.40;;;;;;;21.31;61.78;98801.69;5051771;28;20193;-85
2022/09/15 06:38:53;;;;;;;12.37;6.33;;;;;;;22.04;60.46;98879.13;5051541;28;20181;-85
2022/09/15 06:41:19;;;;;;;9.73;5.70;;;;;;;20.81;59.81;98732.56;5052069;28;20213;-85
2022/09/15 06:43:47;;;;;;;14.50;5.97;;;;;;;20.42;60.02;98622.28;5081120;28;20345;-84
2022/09/15 06:46:17;;;;;;;9.43;5.90;;;;;;;22.44;58.19;98889.88;5074783;28;20200;-84
2022/09/15 06:48:43;;;;;;;10.67;5.57;;;;;;;22.64;57.67;98889.63;5077178;28;20184;-84
2022/09/15 06:51:11;;;;;;;6.07;5.10;;;;;;;22.84;56.22;98885.06;5076090;28;20321;-84
2022/09/15 06:53:37;;;;;;;13.17;5.27;;;;;;;21.42;56.33;98649.63;5074969;28;20192;-83
2022/09/15 06:56:05;;;;;;;7.03;4.73;;;;;;;22.10;55.50;98710.63;5063432;28;20231;-84
2022/09/15 06:58:33;;;;;;;8.00;4.80;;;;;;;22.41;54.21;98742.03;5055714;28;20271;-83
2022/09/15 07:01:11;;;;;;;8.83;5.20;;;;;;;23.33;53.58;98882.63;5055197;28;20628;-84
2022/09/15 07:03:37;;;;;;;11.40;4.80;;;;;;;20.30;52.21;98334.50;5067419;28;20289;-86
2022/09/15 07:06:04;;;;;;;10.00;5.07;;;;;;;23.74;52.71;98871.63;5075927;28;20172;-85
2022/09/15 07:08:29;;;;;;;8.93;4.77;;;;;;;23.66;52.73;98819.22;5074478;28;20180;-85
2022/09/15 07:10:55;;;;;;;8.03;4.80;;;;;;;22.87;52.29;98704.34;5075008;28;20191;-85
2022/09/15 07:13:21;;;;;;;7.40;4.50;;;;;;;23.66;51.17;98843.34;5075135;28;20306;-85
2022/09/15 07:15:55;;;;;;;8.20;4.60;;;;;;;24.33;50.82;98879.16;5075691;28;20187;-85
2022/09/15 07:18:21;;;;;;;11.97;4.87;;;;;;;24.41;50.97;98889.38;5074650;28;20250;-85
2022/09/15 07:20:48;;;;;;;6.67;4.90;;;;;;;23.42;50.00;98681.00;5075272;28;20185;-86
2022/09/15 07:23:13;;;;;;;7.77;4.67;;;;;;;24.24;50.16;98812.06;5074958;28;20205;-85
2022/09/15 07:25:43;;;;;;;9.10;4.90;;;;;;;24.01;49.35;98729.75;5074243;28;20185;-86
2022/09/15 07:28:12;;;;;;;8.97;4.83;;;;;;;24.91;48.68;98842.56;5074860;28;20690;-86
2022/09/15 07:30:38;;;;;;;10.50;5.00;;;;;;;25.11;47.85;98830.00;5065086;28;20188;-86
2022/09/15 07:33:08;;;;;;;7.87;4.83;;;;;;;25.47;47.94;98867.16;5074642;28;20172;-88
2022/09/15 07:35:34;;;;;;;11.03;4.90;;;;;;;25.08;47.38;98761.84;5074669;28;20217;-86
2022/09/15 07:37:59;;;;;;;6.10;4.47;;;;;;;25.30;46.60;98811.44;5074466;28;20187;-86
2022/09/15 07:40:27;;;;;;;8.23;5.13;;;;;;;25.65;47.28;98812.25;5075344;28;20230;-87
2022/09/15 07:42:52;;;;;;;8.63;4.67;;;;;;;25.19;46.50;98711.47;5077019;28;20204;-85
2022/09/15 07:45:18;;;;;;;7.13;5.37;;;;;;;25.93;45.18;98790.75;5081198;28;20186;-86
2022/09/15 07:47:43;;;;;;;8.77;5.13;;;;;;;23.97;45.08;98561.75;5083002;28;20267;-86
2022/09/15 07:50:08;;;;;;;9.80;5.23;;;;;;;25.80;44.32;98798.88;5074496;28;20184;-86
2022/09/15 07:52:34;;;;;;;10.47;4.60;;;;;;;26.42;44.52;98875.91;5073911;28;20603;-85
2022/09/15 07:54:59;;;;;;;9.63;5.23;;;;;;;26.20;44.74;98841.91;5066850;28;20723;-86
2022/09/15 07:57:26;;;;;;;10.60;5.50;;;;;;;25.41;44.55;98644.34;5053622;28;20210;-85
2022/09/15 07:59:51;;;;;;;9.10;5.38;;;;;;;26.12;43.81;98709.72;5070049;28;20190;-86
2022/09/15 08:02:19;;;;;;;13.50;5.32;;;;;;;27.61;43.05;98880.00;5053496;28;20194;-86
2022/09/15 08:04:44;;;;;;;9.27;5.68;;;;;;;27.24;42.33;98776.38;5072494;28;20753;-85
2022/09/15 08:07:10;;;;;;;8.05;4.72;;;;;;;26.73;40.89;98661.13;5075430;28;20191;-87
2022/09/15 08:09:37;;;;;;;8.38;4.25;;;;;;;27.58;41.43;98815.09;5074780;28;20184;-87
2022/09/15 08:12:03;;;;;;;8.35;4.72;;;;;;;27.48;40.83;98757.34;5072390;28;20677;-87
2022/09/15 08:14:31;;;;;;;8.30;4.28;;;;;;;28.19;39.89;98826.81;5071952;28;20186;-87
2022/09/15 08:16:59;;;;;;;6.30;4.45;;;;;;;28.06;39.63;98795.19;5073869;28;20646;-87
2022/09/15 08:19:26;;;;;;;10.85;4.70;;;;;;;28.72;39.18;98895.19;5074012;28;20178;-85
2022/09/15 08:21:52;;;;;;;7.55;4.70;;;;;;;28.48;38.70;98800.56;5073584;28;20182;-86
2022/09/15 08:24:18;;;;;;;10.48;5.00;;;;;;;27.39;39.59;98652.78;5072633;28;20284;-86
2022/09/15 08:26:43;;;;;;;11.68;5.03;;;;;;;28.62;38.38;98782.66;5073327;28;20273;-86
2022/09/15 08:29:09;;;;;;;8.38;5.55;;;;;;;29.29;37.87;98893.88;5073732;28;20182;-86
2022/09/15 08:31:34;;;;;;;8.00;5.47;;;;;;;27.34;38.98;98676.34;5060558;28;20238;-86
2022/09/15 08:34:02;;;;;;;10.00;5.05;;;;;;;27.38;38.95;98672.75;5071483;28;20211;-86
2022/09/15 08:36:28;;;;;;;7.53;4.70;;;;;;;28.37;38.57;98755.84;5073793;28;20184;-86
2022/09/15 08:38:54;;;;;;;13.43;4.78;;;;;;;26.91;38.18;98495.13;5070545;28;20186;-86
2022/09/15 08:41:30;;;;;;;8.35;4.65;;;;;;;29.40;37.41;98892.53;5072148;28;20178;-86
2022/09/15 08:44:15;;;;;;;11.55;5.28;;;;;;;29.49;37.24;98896.53;5070505;28;20218;-86
2022/09/15 08:46:45;;;;;;;9.23;5.22;;;;;;;28.68;37.65;98765.94;5088174;28;20587;-86
2022/09/15 08:49:23;;;;;;;10.45;5.22;;;;;;;29.93;36.47;98892.09;5072855;28;20568;-86
2022/09/15 08:51:51;;;;;;;8.32;4.63;;;;;;;29.22;36.76;98779.41;5088640;28;20286;-86
2022/09/15 08:54:23;;;;;;;11.10;5.10;;;;;;;30.06;36.54;98872.38;5073005;28;20629;-85
2022/09/15 08:56:50;;;;;;;10.38;4.00;;;;;;;29.11;35.80;98705.09;5072777;28;20212;-85
2022/09/15 08:59:18;;;;;;;15.40;6.40;;;;;;;29.38;35.75;98732.66;5072652;28;20698;-86
2022/09/15 09:02:11;;;;;;;8.35;4.05;;;;;;;30.23;36.18;98877.72;5071626;28;20661;-86
2022/09/15 09:04:36;;;;;;;11.23;4.53;;;;;;;30.72;35.50;98885.06;5070438;28;20724;-86
2022/09/15 09:07:20;;;;;;;11.45;4.40;;;;;;;30.74;35.36;98883.22;5071734;28;20275;-86
2022/09/15 09:09:51;;;;;;;9.07;4.47;;;;;;;30.61;35.85;98887.31;5072855;28;20190;-86
2022/09/15 09:12:29;;;;;;;10.25;4.35;;;;;;;30.75;35.86;98876.22;5072386;28;20194;-86
2022/09/15 09:14:57;;;;;;;8.00;4.78;;;;;;;31.12;36.21;98872.78;5071935;28;20208;-86
2022/09/15 09:18:05;;;;;;;13.05;4.70;;;;;;;31.39;35.67;98874.06;5071545;28;20286;-87
2022/09/15 09:21:11;;;;;;;7.78;4.35;;;;;;;31.42;34.87;98866.06;5030686;28;20679;-86
2022/09/15 09:24:13;;;;;;;11.02;4.40;;;;;;;30.87;34.91;98799.84;5029411;28;20223;-87
2022/09/15 09:26:39;;;;;;;9.85;4.43;;;;;;;30.44;35.65;98780.09;5029214;28;20209;-89
2022/09/15 09:29:14;;;;;;;6.90;4.20;;;;;;;30.04;35.97;98653.13;5005614;28;20325;-87
2022/09/15 09:31:41;;;;;;;11.63;4.30;;;;;;;31.39;35.31;98855.75;5021270;28;20240;-86
2022/09/15 09:34:19;;;;;;;7.97;4.13;;;;;;;31.10;34.21;98767.38;5029677;28;20319;-86
2022/09/15 09:36:51;;;;;;;9.00;4.22;;;;;;;31.42;34.09;98771.84;5031730;28;20209;-84
2022/09/15 09:39:16;;;;;;;7.82;3.78;;;;;;;31.17;33.73;98677.22;5030599;28;20213;-86
2022/09/15 09:41:43;;;;;;;8.95;4.57;;;;;;;32.33;33.67;98837.84;5030223;28;20203;-87
2022/09/15 09:44:13;;;;;;;9.25;3.90;;;;;;;31.63;33.54;98702.72;5029648;28;20913;-86
2022/09/15 09:46:39;;;;;;;11.27;4.30;;;;;;;30.26;33.60;98434.41;5022771;28;20923;-87
2022/09/15 09:49:22;;;;;;;5.78;3.63;;;;;;;32.32;33.50;98836.13;5020161;28;20306;-87
2022/09/15 09:52:01;;;;;;;7.72;3.65;;;;;;;32.23;32.76;98792.06;5006891;28;20182;-87
2022/09/15 09:54:28;;;;;;;9.27;3.75;;;;;;;31.17;33.75;98630.13;5025308;28;20185;-87
2022/09/15 09:56:55;;;;;;;6.68;3.50;;;;;;;32.57;33.26;98828.66;5062300;28;20192;-88
2022/09/15 09:59:40;;;;;;;8.82;3.90;;;;;;;33.02;32.02;98827.91;5078298;28;20181;-87
2022/09/15 10:02:11;;;;;;;7.80;3.50;;;;;;;32.60;32.64;98823.25;5062013;28;20195;-87
2022/09/15 10:04:52;;;;;;;9.38;3.70;;;;;;;32.06;32.77;98723.09;5079347;28;20185;-87
2022/09/15 10:07:21;;;;;;;10.10;3.85;;;;;;;32.06;33.62;98806.06;5062086;28;20568;-87
2022/09/15 10:09:53;;;;;;;10.20;3.75;;;;;;;31.93;33.52;98802.38;5062631;28;20275;-88
2022/09/15 10:12:22;;;;;;;6.93;3.53;;;;;;;32.13;33.10;98803.97;5076588;28;20177;-87
2022/09/15 10:14:51;;;;;;;6.75;4.00;;;;;;;32.41;33.67;98801.56;5060522;28;20181;-87
2022/09/15 10:17:23;;;;;;;11.07;3.63;;;;;;;32.66;32.71;98807.19;5059909;28;20263;-85
2022/09/15 10:19:53;;;;;;;5.70;3.60;;;;;;;33.02;32.24;98789.38;5060069;28;20619;-85
2022/09/15 10:22:32;;;;;;;7.00;3.60;;;;;;;33.11;32.15;98790.66;5061486;28;20183;-87
2022/09/15 10:24:59;;;;;;;6.28;3.53;;;;;;;32.96;31.34;98774.00;5061632;28;20190;-87
2022/09/15 10:27:35;;;;;;;7.65;3.55;;;;;;;32.83;31.79;98732.78;5061668;28;20184;-86
2022/09/15 10:30:13;;;;;;;8.32;3.60;;;;;;;32.99;32.29;98779.03;5061249;28;20195;-86
2022/09/15 10:32:40;;;;;;;9.18;4.07;;;;;;;33.05;32.29;98710.53;5053430;28;20224;-87
2022/09/15 10:35:12;;;;;;;10.95;4.00;;;;;;;33.41;31.87;98775.75;5075943;28;20223;-86
2022/09/15 10:37:59;;;;;;;9.75;3.85;;;;;;;32.89;32.17;98770.03;5077606;28;20231;-86
2022/09/15 10:40:32;;;;;;;10.43;3.78;;;;;;;33.06;32.22;98766.47;5062379;28;20177;-86
2022/09/15 10:43:19;;;;;;;8.57;3.58;;;;;;;33.22;31.38;98755.00;5062607;28;20259;-87
2022/09/15 10:45:49;;;;;;;9.68;3.67;;;;;;;33.26;31.33;98729.44;5079523;28;20200;-84
2022/09/15 10:48:43;;;;;;;5.43;3.65;;;;;;;33.59;30.71;98789.63;5062449;28;20176;-84
2022/09/15 10:51:52;;;;;;;8.93;3.70;;;;;;;33.65;29.84;98731.47;5062379;28;20189;-86
2022/09/15 10:54:49;;;;;;;10.68;3.80;;;;;;;34.20;29.13;98766.56;5002120;28;20198;-86
2022/09/15 10:57:30;;;;;;;8.30;3.85;;;;;;;32.89;29.49;98598.69;4999088;28;20267;-86
2022/09/15 11:00:09;;;;;;;6.00;3.38;;;;;;;33.21;29.92;98644.88;4999601;28;20214;-86
2022/09/15 11:02:54;;;;;;;9.50;3.53;;;;;;;33.75;29.62;98748.34;4999567;28;20361;-86
2022/09/15 11:05:25;;;;;;;12.52;3.50;;;;;;;33.98;29.98;98747.78;4997086;28;20257;-85
2022/09/15 11:08:11;;;;;;;9.20;3.30;;;;;;;33.76;30.15;98750.06;4998371;28;20191;-85
2022/09/15 11:10:55;;;;;;;7.85;3.80;;;;;;;33.73;30.46;98745.00;5009445;28;20186;-86
2022/09/15 11:13:38;;;;;;;8.02;3.53;;;;;;;33.95;30.13;98740.09;5008023;28;20294;-86
2022/09/15 11:16:06;;;;;;;12.65;4.28;;;;;;;34.17;30.15;98735.22;5008468;28;20199;-86
2022/09/15 11:19:00;;;;;;;8.88;3.60;;;;;;;34.37;29.26;98726.91;5007763;28;20206;-86
2022/09/15 11:21:38;;;;;;;11.35;4.15;;;;;;;33.99;29.78;98678.53;5008704;28;20218;-85
2022/09/15 11:24:17;;;;;;;8.60;3.40;;;;;;;33.86;29.04;98666.28;5008333;28;20210;-86
2022/09/15 11:26:48;;;;;;;9.52;3.80;;;;;;;33.80;29.22;98647.34;5009103;28;20197;-86
2022/09/15 11:29:23;;;;;;;9.13;3.80;;;;;;;34.26;29.08;98729.38;5063646;28;20239;-85
2022/09/15 11:31:53;;;;;;;10.40;4.05;;;;;;;34.18;29.59;98729.03;5063054;28;20258;-86
2022/09/15 11:34:41;;;;;;;11.80;3.95;;;;;;;34.36;29.39;98719.13;5072934;28;20248;-86
2022/09/15 11:37:38;;;;;;;10.80;3.97;;;;;;;34.70;28.99;98715.19;5078783;28;20189;-85
2022/09/15 11:40:20;;;;;;;12.05;4.05;;;;;;;34.32;28.59;98594.09;5073411;28;20176;-86
2022/09/15 11:42:59;;;;;;;11.88;4.10;;;;;;;34.75;28.25;98608.72;5074221;28;20192;-86
2022/09/15 11:45:35;;;;;;;13.13;3.92;;;;;;;34.36;27.89;98532.50;5074663;28;20245;-87